Time;durP1;ratioP1;P1;durP2;ratioP2;P2;SDS_P1;SDS_P2;PMS_P1;PMS_P2;Temp;Humidity;BMP_temperature;BMP_pressure;BME280_temperature;BME280_humidity;BME280_pressure;Samples;Min_cycle;Max_cycle;Signal;HPM_P1;HPM_P2
2022/09/09 00:01:51;;;;;;;3.08;1.38;;;;;;;;;;5040370;28;20073;-80
2022/09/09 00:04:30;;;;;;;3.42;1.65;;;;;;;;;;5034386;28;20040;-80
2022/09/09 00:07:02;;;;;;;4.10;1.38;;;;;;;;;;5039319;28;20041;-80
2022/09/09 00:09:29;;;;;;;2.58;1.00;;;;;;;;;;5046842;28;20025;-80
2022/09/09 00:12:04;;;;;;;3.80;1.55;;;;;;;;;;5038517;28;20026;-80
2022/09/09 00:14:38;;;;;;;1.83;1.48;;;;;;;;;;5040888;28;20061;-80
2022/09/09 00:17:11;;;;;;;2.40;1.20;;;;;;;;;;5040283;28;20029;-80
2022/09/09 00:19:50;;;;;;;3.42;1.48;;;;;;;;;;5034652;28;20032;-80
2022/09/09 00:22:18;;;;;;;4.03;1.20;;;;;;;;;;5038299;28;20484;-80
2022/09/09 00:24:53;;;;;;;3.22;1.42;;;;;;;;;;5034907;28;20034;-79
2022/09/09 00:27:21;;;;;;;4.13;1.27;;;;;;;;;;5528728;22;20049;-78
2022/09/09 00:30:12;;;;;;;1.85;1.08;;;;;;;;;;5046042;28;20108;-78
2022/09/09 00:32:37;;;;;;;3.63;1.38;;;;;;;;;;5066534;28;20047;-78
2022/09/09 00:35:10;;;;;;;3.75;1.58;;;;;;;;;;5061302;28;20373;-78
2022/09/09 00:37:36;;;;;;;6.53;1.45;;;;;;;;;;5059215;28;20075;-78
2022/09/09 00:40:11;;;;;;;2.67;1.08;;;;;;;;;;5057519;28;20112;-78
2022/09/09 00:42:42;;;;;;;1.58;1.48;;;;;;;;;;5051173;28;20025;-78
2022/09/09 00:45:23;;;;;;;4.47;1.38;;;;;;;;;;5035939;28;20017;-78
2022/09/09 00:47:53;;;;;;;5.78;1.20;;;;;;;;;;5052227;28;20029;-78
2022/09/09 00:50:35;;;;;;;1.83;1.15;;;;;;;;;;5054806;28;20374;-79
2022/09/09 00:53:19;;;;;;;4.03;1.40;;;;;;;;;;5048289;28;20047;-79
2022/09/09 00:56:14;;;;;;;1.88;1.17;;;;;;;;;;5052667;28;20017;-78
2022/09/09 00:58:50;;;;;;;1.60;1.00;;;;;;;;;;5053887;28;20036;-78
2022/09/09 01:01:16;;;;;;;2.17;1.25;;;;;;;;;;5059271;28;20521;-79
2022/09/09 01:03:55;;;;;;;5.75;2.13;;;;;;;;;;5052687;28;20041;-78
2022/09/09 01:06:30;;;;;;;1.30;1.00;;;;;;;;;;5049412;28;20502;-78
2022/09/09 01:09:17;;;;;;;3.38;1.30;;;;;;;;;;5055039;28;20063;-78
2022/09/09 01:11:55;;;;;;;2.60;1.20;;;;;;;;;;5054137;28;20036;-79
2022/09/09 01:14:51;;;;;;;1.77;1.20;;;;;;;;;;5054178;28;20040;-79
2022/09/09 01:17:34;;;;;;;2.10;1.45;;;;;;;;;;5016505;28;20041;-78
2022/09/09 01:20:06;;;;;;;3.00;1.30;;;;;;;;;;5052656;28;20434;-78
2022/09/09 01:22:45;;;;;;;3.88;1.17;;;;;;;;;;5054016;28;20474;-78
2022/09/09 01:25:49;;;;;;;1.42;0.98;;;;;;;;;;5036192;28;20163;-78
2022/09/09 01:28:22;;;;;;;2.38;0.95;;;;;;;;;;5006467;28;20120;-79
2022/09/09 01:30:48;;;;;;;2.45;1.05;;;;;;;;;;5051680;28;20447;-78
2022/09/09 01:33:16;;;;;;;3.58;1.20;;;;;;;;;;5055581;28;20132;-78
2022/09/09 01:36:00;;;;;;;1.30;1.00;;;;;;;;;;5045453;28;20029;-78
2022/09/09 01:38:27;;;;;;;4.65;1.05;;;;;;;;;;5037089;28;20025;-78
2022/09/09 01:40:53;;;;;;;6.03;1.55;;;;;;;;;;5051641;28;20101;-78
2022/09/09 01:43:21;;;;;;;2.58;1.08;;;;;;;;;;5034494;28;20029;-78
2022/09/09 01:45:50;;;;;;;4.80;1.20;;;;;;;;;;5051512;28;20368;-77
2022/09/09 01:48:17;;;;;;;4.15;0.85;;;;;;;;;;5050164;28;20013;-78
2022/09/09 01:50:43;;;;;;;1.83;1.20;;;;;;;;;;5038451;28;20482;-79
2022/09/09 01:53:08;;;;;;;2.80;0.75;;;;;;;;;;5053971;28;20017;-78
2022/09/09 01:55:39;;;;;;;2.00;0.93;;;;;;;;;;5057906;28;20017;-80
2022/09/09 01:58:39;;;;;;;5.28;1.23;;;;;;;;;;5057071;28;20021;-78
2022/09/09 02:01:38;;;;;;;1.75;0.95;;;;;;;;;;4956063;28;20441;-79
2022/09/09 02:04:15;;;;;;;1.10;0.90;;;;;;;;;;5047856;28;20044;-81
2022/09/09 02:06:40;;;;;;;1.08;0.93;;;;;;;;;;5052915;28;20468;-80
2022/09/09 02:09:10;;;;;;;1.33;0.95;;;;;;;;;;5055129;28;20063;-80
2022/09/09 02:11:36;;;;;;;4.00;1.10;;;;;;;;;;5052996;28;20051;-80
2022/09/09 02:14:23;;;;;;;2.45;0.82;;;;;;;;;;5045405;28;20032;-79
2022/09/09 02:17:03;;;;;;;2.83;0.85;;;;;;;;;;5046340;28;20040;-80
2022/09/09 02:19:39;;;;;;;3.20;1.25;;;;;;;;;;5043964;28;20035;-79
2022/09/09 02:22:04;;;;;;;7.80;1.58;;;;;;;;;;5051119;28;20385;-79
2022/09/09 02:24:34;;;;;;;4.85;1.30;;;;;;;;;;5057129;28;20017;-79
2022/09/09 02:27:03;;;;;;;2.67;1.20;;;;;;;;;;5042421;28;20028;-79
2022/09/09 02:29:36;;;;;;;2.70;0.80;;;;;;;;;;5045572;28;20445;-79
2022/09/09 02:32:07;;;;;;;1.80;0.80;;;;;;;;;;5064628;28;20060;-78
2022/09/09 02:34:37;;;;;;;2.10;0.93;;;;;;;;;;5051188;28;20025;-78
2022/09/09 02:37:06;;;;;;;6.43;0.80;;;;;;;;;;5051754;28;20021;-78
2022/09/09 02:39:31;;;;;;;1.52;0.88;;;;;;;;;;5055005;28;20040;-81
2022/09/09 02:41:57;;;;;;;0.60;0.60;;;;;;;;;;5039245;28;20029;-79
2022/09/09 02:44:22;;;;;;;1.08;0.82;;;;;;;;;;5053294;28;20089;-78
2022/09/09 02:47:15;;;;;;;1.65;0.93;;;;;;;;;;5055168;28;20036;-80
2022/09/09 02:49:49;;;;;;;1.50;0.55;;;;;;;;;;5057093;28;20033;-79
2022/09/09 02:52:18;;;;;;;1.90;0.93;;;;;;;;;;5050049;28;20594;-80
2022/09/09 02:54:44;;;;;;;1.10;0.80;;;;;;;;;;5057343;28;20111;-80
2022/09/09 02:57:30;;;;;;;1.42;0.73;;;;;;;;;;5056807;28;20025;-80
2022/09/09 02:59:58;;;;;;;1.85;0.70;;;;;;;;;;5043583;28;20525;-80
2022/09/09 03:02:24;;;;;;;0.52;0.50;;;;;;;;;;5063079;28;20025;-80
2022/09/09 03:04:51;;;;;;;1.95;0.90;;;;;;;;;;5057459;28;20560;-79
2022/09/09 03:07:18;;;;;;;2.08;0.63;;;;;;;;;;5056601;28;20029;-79
2022/09/09 03:09:44;;;;;;;1.40;0.50;;;;;;;;;;5058173;28;20037;-79
2022/09/09 03:12:10;;;;;;;1.85;0.60;;;;;;;;;;5059986;28;20028;-80
2022/09/09 03:14:36;;;;;;;0.65;0.65;;;;;;;;;;5060840;28;20054;-80
2022/09/09 03:17:02;;;;;;;1.60;0.80;;;;;;;;;;5059938;28;20076;-80
2022/09/09 03:19:27;;;;;;;1.05;0.50;;;;;;;;;;5061283;28;20024;-80
2022/09/09 03:21:53;;;;;;;3.25;0.60;;;;;;;;;;5036224;28;20390;-80
2022/09/09 03:24:19;;;;;;;0.88;0.75;;;;;;;;;;5061981;28;20454;-79
2022/09/09 03:26:45;;;;;;;1.63;0.70;;;;;;;;;;5060326;28;20076;-79
2022/09/09 03:29:12;;;;;;;2.97;0.68;;;;;;;;;;5051241;28;20043;-80
2022/09/09 03:31:37;;;;;;;2.80;0.65;;;;;;;;;;5054463;28;20100;-80
2022/09/09 03:34:03;;;;;;;3.45;0.80;;;;;;;;;;5060601;28;20048;-79
2022/09/09 03:36:29;;;;;;;1.80;0.55;;;;;;;;;;5059564;28;20032;-79
2022/09/09 03:38:54;;;;;;;0.95;0.60;;;;;;;;;;5042290;28;20044;-80
2022/09/09 03:41:23;;;;;;;0.32;0.32;;;;;;;;;;5040494;28;20049;-80
2022/09/09 03:43:52;;;;;;;1.13;0.55;;;;;;;;;;5060014;28;20386;-83
2022/09/09 03:46:23;;;;;;;1.45;0.90;;;;;;;;;;5061723;28;20107;-81
2022/09/09 03:48:48;;;;;;;2.63;0.80;;;;;;;;;;5045426;28;20047;-79
2022/09/09 03:51:14;;;;;;;2.35;1.02;;;;;;;;;;5060023;28;20037;-81
2022/09/09 03:53:39;;;;;;;0.47;0.40;;;;;;;;;;5059899;28;20064;-81
2022/09/09 03:56:06;;;;;;;2.50;0.63;;;;;;;;;;5038439;28;20103;-81
2022/09/09 03:58:37;;;;;;;3.38;0.80;;;;;;;;;;5060574;28;20024;-84
2022/09/09 04:01:05;;;;;;;1.17;0.77;;;;;;;;;;5046162;28;20025;-81
2022/09/09 04:03:30;;;;;;;4.28;0.70;;;;;;;;;;5079754;28;20028;-79
2022/09/09 04:05:58;;;;;;;2.75;0.80;;;;;;;;;;5059042;28;20035;-80
2022/09/09 04:08:27;;;;;;;2.42;0.80;;;;;;;;;;5041482;28;20116;-79
2022/09/09 04:10:53;;;;;;;0.57;0.45;;;;;;;;;;5074168;28;20039;-78
2022/09/09 04:13:19;;;;;;;0.90;0.65;;;;;;;;;;5061668;28;20108;-77
2022/09/09 04:15:51;;;;;;;1.27;0.63;;;;;;;;;;5039910;28;20119;-81
2022/09/09 04:18:16;;;;;;;0.32;0.32;;;;;;;;;;5068057;28;20024;-81
2022/09/09 04:20:43;;;;;;;1.48;0.50;;;;;;;;;;5061978;28;20497;-82
2022/09/09 04:23:08;;;;;;;1.23;0.57;;;;;;;;;;5040381;28;20489;-82
2022/09/09 04:25:34;;;;;;;5.40;0.82;;;;;;;;;;5061737;28;20017;-80
2022/09/09 04:27:59;;;;;;;2.90;0.98;;;;;;;;;;5057439;28;20035;-81
2022/09/09 04:30:25;;;;;;;2.17;0.70;;;;;;;;;;5065925;28;20068;-79
2022/09/09 04:32:50;;;;;;;0.73;0.50;;;;;;;;;;5076277;28;20059;-79
2022/09/09 04:35:16;;;;;;;0.88;0.57;;;;;;;;;;5078974;28;20033;-79
2022/09/09 04:37:41;;;;;;;0.57;0.57;;;;;;;;;;5078843;28;20031;-79
2022/09/09 04:40:09;;;;;;;0.57;0.38;;;;;;;;;;5064794;28;20021;-80
2022/09/09 04:42:39;;;;;;;0.43;0.43;;;;;;;;;;5074071;28;20017;-82
2022/09/09 04:45:05;;;;;;;3.90;0.95;;;;;;;;;;5079265;28;20034;-80
2022/09/09 04:47:30;;;;;;;0.60;0.60;;;;;;;;;;5058377;28;20031;-81
2022/09/09 04:49:56;;;;;;;2.83;1.08;;;;;;;;;;5057480;28;20049;-80
2022/09/09 04:52:22;;;;;;;3.85;1.25;;;;;;;;;;5040749;28;20044;-81
2022/09/09 04:54:48;;;;;;;4.32;0.90;;;;;;;;;;5058664;28;20079;-79
2022/09/09 04:57:13;;;;;;;2.53;1.10;;;;;;;;;;5039000;28;20057;-79
2022/09/09 04:59:39;;;;;;;1.42;0.98;;;;;;;;;;5058091;28;20371;-81
2022/09/09 05:02:05;;;;;;;2.80;1.30;;;;;;;;;;5066694;28;20501;-81
2022/09/09 05:04:30;;;;;;;2.38;1.13;;;;;;;;;;5051844;28;20021;-80
2022/09/09 05:06:55;;;;;;;0.90;0.80;;;;;;;;;;5037864;28;20119;-79
2022/09/09 05:09:21;;;;;;;3.65;1.23;;;;;;;;;;5043157;28;20227;-80
2022/09/09 05:11:46;;;;;;;2.25;1.00;;;;;;;;;;5050939;28;20191;-79
2022/09/09 05:14:12;;;;;;;2.55;0.98;;;;;;;;;;5076452;28;20028;-80
2022/09/09 05:16:37;;;;;;;2.13;0.98;;;;;;;;;;5068195;28;20028;-81
2022/09/09 05:19:03;;;;;;;1.08;0.88;;;;;;;;;;5057580;28;20025;-80
2022/09/09 05:21:30;;;;;;;0.95;0.80;;;;;;;;;;5061588;28;20024;-82
2022/09/09 05:23:55;;;;;;;1.17;0.70;;;;;;;;;;5042261;28;20048;-79
2022/09/09 05:26:22;;;;;;;1.17;0.70;;;;;;;;;;5039395;28;20037;-79
2022/09/09 05:28:48;;;;;;;1.55;0.60;;;;;;;;;;5038646;28;20025;-79
2022/09/09 05:31:15;;;;;;;0.80;0.80;;;;;;;;;;5050845;28;20016;-78
2022/09/09 05:33:43;;;;;;;0.75;0.70;;;;;;;;;;5060876;28;20028;-79
2022/09/09 05:36:15;;;;;;;1.88;0.80;;;;;;;;;;5079624;28;20100;-81
2022/09/09 05:38:40;;;;;;;4.85;1.05;;;;;;;;;;5078961;28;20070;-80
2022/09/09 05:41:07;;;;;;;3.47;0.90;;;;;;;;;;5079307;28;20474;-80
2022/09/09 05:43:35;;;;;;;1.15;0.88;;;;;;;;;;5079243;28;20029;-80
2022/09/09 05:46:05;;;;;;;3.28;0.90;;;;;;;;;;5064999;28;20088;-80
2022/09/09 05:48:31;;;;;;;1.75;0.80;;;;;;;;;;5063787;28;20573;-79
2022/09/09 05:50:58;;;;;;;1.27;0.50;;;;;;;;;;5078192;28;20560;-80
2022/09/09 05:53:23;;;;;;;3.70;0.70;;;;;;;;;;5079396;28;20052;-79
2022/09/09 05:55:48;;;;;;;4.93;1.00;;;;;;;;;;5059981;28;20043;-79
2022/09/09 05:58:16;;;;;;;4.72;0.77;;;;;;;;;;5058072;28;20398;-81
2022/09/09 06:00:43;;;;;;;4.10;0.77;;;;;;;;;;5063130;28;20031;-80
2022/09/09 06:03:11;;;;;;;4.03;1.42;;;;;;;;;;5057600;28;20020;-81
2022/09/09 06:05:36;;;;;;;3.20;0.88;;;;;;;;;;5078796;28;20020;-80
2022/09/09 06:08:01;;;;;;;2.10;0.70;;;;;;;;;;5050507;28;20106;-79
2022/09/09 06:10:27;;;;;;;1.08;0.88;;;;;;;;;;5044120;28;20017;-80
2022/09/09 06:12:53;;;;;;;2.90;1.10;;;;;;;;;;5054599;28;20020;-81
2022/09/09 06:15:18;;;;;;;3.05;1.13;;;;;;;;;;5052141;28;20144;-80
2022/09/09 06:17:45;;;;;;;1.65;1.15;;;;;;;;;;5048430;28;20078;-79
2022/09/09 06:20:10;;;;;;;1.60;0.73;;;;;;;;;;5049496;28;20021;-80
2022/09/09 06:22:35;;;;;;;6.63;1.10;;;;;;;;;;5038518;28;20159;-81
2022/09/09 06:25:01;;;;;;;1.77;0.90;;;;;;;;;;5056813;28;20227;-81
2022/09/09 06:27:28;;;;;;;1.48;0.98;;;;;;;;;;5164075;22;20009;-81
2022/09/09 06:29:53;;;;;;;1.00;0.88;;;;;;;;;;5046298;28;20040;-80
2022/09/09 06:32:19;;;;;;;4.95;0.90;;;;;;;;;;5060606;28;20031;-79
2022/09/09 06:34:45;;;;;;;3.58;1.30;;;;;;;;;;5057204;28;20029;-81
2022/09/09 06:37:10;;;;;;;3.15;1.02;;;;;;;;;;5056800;28;20025;-80
2022/09/09 06:39:35;;;;;;;3.85;0.82;;;;;;;;;;5058205;28;20025;-80
2022/09/09 06:42:01;;;;;;;1.65;0.70;;;;;;;;;;5056573;28;20439;-79
2022/09/09 06:44:33;;;;;;;2.70;1.52;;;;;;;;;;5057866;28;20021;-83
2022/09/09 06:46:58;;;;;;;1.15;0.93;;;;;;;;;;5047398;28;20040;-81
2022/09/09 06:49:23;;;;;;;1.40;1.05;;;;;;;;;;5056541;28;20059;-80
2022/09/09 06:51:49;;;;;;;2.90;0.90;;;;;;;;;;5058230;28;20025;-81
2022/09/09 06:54:14;;;;;;;2.05;0.80;;;;;;;;;;5058427;28;20158;-81
2022/09/09 06:56:42;;;;;;;2.47;0.90;;;;;;;;;;5053174;28;20065;-80
2022/09/09 06:59:09;;;;;;;0.98;0.65;;;;;;;;;;5035923;28;20025;-81
2022/09/09 07:01:40;;;;;;;2.70;0.88;;;;;;;;;;5039015;28;20025;-80
2022/09/09 07:04:07;;;;;;;0.88;0.63;;;;;;;;;;5019001;28;20037;-81
2022/09/09 07:06:38;;;;;;;1.55;0.80;;;;;;;;;;5045225;28;20033;-81
2022/09/09 07:09:09;;;;;;;0.75;0.70;;;;;;;;;;5037313;28;20035;-81
2022/09/09 07:11:42;;;;;;;2.80;0.98;;;;;;;;;;5037064;28;20395;-78
2022/09/09 07:14:08;;;;;;;1.58;0.88;;;;;;;;;;5019431;28;20128;-80
2022/09/09 07:16:36;;;;;;;1.00;0.82;;;;;;;;;;5021395;28;20483;-80
2022/09/09 07:19:03;;;;;;;2.63;0.93;;;;;;;;;;5047512;28;20054;-80
2022/09/09 07:21:29;;;;;;;3.00;0.90;;;;;;;;;;5057779;28;20485;-81
2022/09/09 07:23:55;;;;;;;4.13;1.30;;;;;;;;;;5043342;28;20310;-79
2022/09/09 07:26:22;;;;;;;2.60;0.80;;;;;;;;;;5042225;28;20017;-81
2022/09/09 07:28:48;;;;;;;3.83;0.70;;;;;;;;;;5045792;28;20056;-80
2022/09/09 07:31:21;;;;;;;2.25;0.90;;;;;;;;;;5053073;28;20022;-78
2022/09/09 07:33:48;;;;;;;1.77;0.80;;;;;;;;;;5037914;28;20462;-80
2022/09/09 07:36:17;;;;;;;2.15;1.05;;;;;;;;;;5037130;28;20112;-81
2022/09/09 07:38:54;;;;;;;2.90;1.10;;;;;;;;;;5016504;28;20093;-80
2022/09/09 07:41:23;;;;;;;3.10;0.95;;;;;;;;;;5036623;28;20448;-83
2022/09/09 07:43:49;;;;;;;2.35;1.10;;;;;;;;;;5037196;28;20032;-82
2022/09/09 07:46:17;;;;;;;1.75;0.95;;;;;;;;;;5027146;28;20030;-82
2022/09/09 07:48:51;;;;;;;7.63;1.13;;;;;;;;;;5040995;28;20151;-82
2022/09/09 07:51:25;;;;;;;0.82;0.68;;;;;;;;;;5018329;28;20404;-79
2022/09/09 07:53:57;;;;;;;8.45;1.15;;;;;;;;;;5019228;28;20029;-82
2022/09/09 07:56:31;;;;;;;1.50;0.88;;;;;;;;;;5032213;28;20022;-79
2022/09/09 07:58:58;;;;;;;2.67;0.80;;;;;;;;;;5022745;28;20037;-78
2022/09/09 08:04:46;;;;;;;4.03;1.02;;;;;;;;;;5040567;28;20522;-79
2022/09/09 08:07:11;;;;;;;2.33;0.95;;;;;;;;;;5039168;28;20029;-82
2022/09/09 08:09:36;;;;;;;2.70;1.08;;;;;;;;;;5052339;28;20036;-82
2022/09/09 08:12:02;;;;;;;2.75;1.38;;;;;;;;;;5025869;28;20025;-81
2022/09/09 08:14:27;;;;;;;1.52;0.75;;;;;;;;;;5051421;28;20021;-79
2022/09/09 08:16:54;;;;;;;3.55;1.08;;;;;;;;;;5045482;28;20116;-80
2022/09/09 08:19:19;;;;;;;3.72;0.65;;;;;;;;;;5048148;28;20529;-81
2022/09/09 08:21:44;;;;;;;1.27;0.95;;;;;;;;;;5041566;28;20025;-80
2022/09/09 08:24:11;;;;;;;1.95;0.82;;;;;;;;;;5040917;28;20029;-81
2022/09/09 08:26:42;;;;;;;1.95;1.30;;;;;;;;;;5025080;28;20079;-79
2022/09/09 08:29:10;;;;;;;3.30;0.90;;;;;;;;;;5018001;28;20041;-78
2022/09/09 08:34:57;;;;;;;2.13;0.98;;;;;;;;;;5025571;28;20040;-78
2022/09/09 08:39:57;;;;;;;7.25;0.82;;;;;;;;;;5072104;22;20053;-80
2022/09/09 08:42:27;;;;;;;1.60;0.75;;;;;;;;;;5040254;28;20449;-82
2022/09/09 08:45:02;;;;;;;2.53;0.55;;;;;;;;;;5022457;28;20449;-80
2022/09/09 08:48:05;;;;;;;1.80;0.73;;;;;;;;;;5040396;28;20025;-81
2022/09/09 08:50:35;;;;;;;1.27;0.95;;;;;;;;;;4935836;29;20020;-81
2022/09/09 08:53:24;;;;;;;1.98;0.85;;;;;;;;;;5156696;23;20034;-79
2022/09/09 08:56:11;;;;;;;2.20;0.90;;;;;;;;;;5035884;28;20025;-80
2022/09/09 08:58:46;;;;;;;5.28;0.90;;;;;;;;;;5036714;28;20029;-79
2022/09/09 09:01:28;;;;;;;2.55;0.85;;;;;;;;;;5032107;28;20040;-79
2022/09/09 09:04:17;;;;;;;1.95;0.60;;;;;;;;;;5023963;28;20034;-79
2022/09/09 09:07:10;;;;;;;1.83;0.57;;;;;;;;;;5015720;28;20479;-79
2022/09/09 09:09:46;;;;;;;2.05;0.50;;;;;;;;;;5016597;28;20029;-79
2022/09/09 09:12:25;;;;;;;4.20;0.80;;;;;;;;;;5016607;28;20560;-79
2022/09/09 09:14:50;;;;;;;1.48;0.43;;;;;;;;;;5016012;28;20030;-80
2022/09/09 09:17:19;;;;;;;3.60;0.60;;;;;;;;;;5004031;28;20106;-79
2022/09/09 09:19:46;;;;;;;1.83;0.90;;;;;;;;;;5033563;28;20025;-80
2022/09/09 09:22:26;;;;;;;4.10;0.80;;;;;;;;;;5036903;28;20427;-79
2022/09/09 09:24:56;;;;;;;2.42;0.63;;;;;;;;;;5033970;28;20091;-81
2022/09/09 09:27:30;;;;;;;2.17;0.65;;;;;;;;;;5035403;28;20029;-80
2022/09/09 09:30:05;;;;;;;2.42;0.73;;;;;;;;;;5033100;28;20026;-80
2022/09/09 09:32:34;;;;;;;4.65;0.52;;;;;;;;;;5030518;28;20058;-80
2022/09/09 09:35:06;;;;;;;4.00;1.00;;;;;;;;;;5036917;28;20157;-80
2022/09/09 09:37:34;;;;;;;4.60;1.25;;;;;;;;;;5036793;28;20483;-80
2022/09/09 09:40:18;;;;;;;0.65;0.50;;;;;;;;;;5034771;28;20068;-80
2022/09/09 09:43:07;;;;;;;2.50;0.90;;;;;;;;;;5034255;28;20082;-80
2022/09/09 09:45:47;;;;;;;2.83;1.10;;;;;;;;;;5026426;28;20033;-80
2022/09/09 09:48:13;;;;;;;5.97;1.27;;;;;;;;;;5011096;28;20381;-80
2022/09/09 09:50:57;;;;;;;3.67;1.00;;;;;;;;;;5018932;28;20438;-79
2022/09/09 09:53:34;;;;;;;2.65;0.60;;;;;;;;;;5018142;28;20063;-79
2022/09/09 09:56:04;;;;;;;2.20;1.10;;;;;;;;;;5013974;28;20030;-78
2022/09/09 09:58:38;;;;;;;1.70;0.75;;;;;;;;;;5014597;28;20045;-79
2022/09/09 10:01:04;;;;;;;0.82;0.55;;;;;;;;;;5015451;28;20045;-78
2022/09/09 10:03:31;;;;;;;1.20;0.63;;;;;;;;;;5019003;28;20492;-79
2022/09/09 10:05:57;;;;;;;4.43;0.93;;;;;;;;;;5023203;28;20022;-79
2022/09/09 10:08:24;;;;;;;1.75;0.60;;;;;;;;;;5022783;28;20049;-79
2022/09/09 10:10:56;;;;;;;1.38;0.73;;;;;;;;;;5027609;28;20022;-80
2022/09/09 10:13:21;;;;;;;1.90;0.50;;;;;;;;;;5015565;28;20068;-79
2022/09/09 10:16:10;;;;;;;1.30;0.52;;;;;;;;;;5011812;28;20022;-79
2022/09/09 10:18:47;;;;;;;2.40;0.50;;;;;;;;;;5013473;28;20025;-79
2022/09/09 10:21:53;;;;;;;3.20;0.68;;;;;;;;;;5016551;28;20076;-78
2022/09/09 10:24:41;;;;;;;1.55;0.50;;;;;;;;;;5017790;28;20515;-78
2022/09/09 10:27:22;;;;;;;3.78;1.00;;;;;;;;;;5019412;28;20098;-78
2022/09/09 10:30:20;;;;;;;7.00;1.00;;;;;;;;;;5019021;28;20097;-78
2022/09/09 10:32:53;;;;;;;1.85;0.82;;;;;;;;;;5018027;28;20081;-80
2022/09/09 10:35:33;;;;;;;3.10;1.38;;;;;;;;;;5014207;28;20021;-80
2022/09/09 10:38:19;;;;;;;3.58;1.75;;;;;;;;;;5015886;28;20026;-80
2022/09/09 10:41:06;;;;;;;1.58;0.70;;;;;;;;;;5017835;28;20032;-80
2022/09/09 10:44:04;;;;;;;2.00;0.60;;;;;;;;;;4998473;28;20037;-80
2022/09/09 10:46:49;;;;;;;1.17;0.55;;;;;;;;;;5011278;28;20048;-80
2022/09/09 10:49:45;;;;;;;1.08;0.73;;;;;;;;;;5020572;28;20055;-80
2022/09/09 10:52:32;;;;;;;2.85;0.77;;;;;;;;;;5033568;28;20025;-81
2022/09/09 10:55:01;;;;;;;1.45;0.60;;;;;;;;;;5031113;28;20026;-79
2022/09/09 10:57:32;;;;;;;4.03;0.77;;;;;;;;;;5029496;28;20021;-79
2022/09/09 11:00:04;;;;;;;5.25;0.65;;;;;;;;;;5008816;28;20142;-80
2022/09/09 11:02:31;;;;;;;2.05;0.60;;;;;;;;;;5015503;28;20043;-81
2022/09/09 11:05:07;;;;;;;1.48;0.65;;;;;;;;;;5017546;28;20076;-78
2022/09/09 11:08:08;;;;;;;1.70;0.68;;;;;;;;;;5018264;28;20025;-79
2022/09/09 11:10:59;;;;;;;2.10;0.57;;;;;;;;;;4993659;28;20041;-80
2022/09/09 11:13:48;;;;;;;0.70;0.30;;;;;;;;;;5018365;28;20040;-79
2022/09/09 11:16:23;;;;;;;9.68;1.08;;;;;;;;;;5020057;28;20060;-83
2022/09/09 11:18:49;;;;;;;6.43;0.55;;;;;;;;;;5005254;28;20022;-83
2022/09/09 11:21:27;;;;;;;1.60;0.73;;;;;;;;;;5019932;28;20022;-84
2022/09/09 11:23:57;;;;;;;4.90;0.98;;;;;;;;;;5016196;28;20042;-84
2022/09/09 11:26:33;;;;;;;2.42;0.88;;;;;;;;;;5017825;28;20026;-82
2022/09/09 11:29:26;;;;;;;5.10;0.80;;;;;;;;;;5017317;28;20554;-82
2022/09/09 11:32:16;;;;;;;2.38;0.80;;;;;;;;;;5019397;28;20053;-80
2022/09/09 11:35:16;;;;;;;1.55;0.52;;;;;;;;;;5017824;28;20026;-80
2022/09/09 11:37:53;;;;;;;1.67;0.52;;;;;;;;;;5014109;28;20519;-81
2022/09/09 11:40:23;;;;;;;0.85;0.85;;;;;;;;;;5012448;28;20098;-82
2022/09/09 11:42:52;;;;;;;1.10;0.70;;;;;;;;;;5019119;28;20025;-81
2022/09/09 11:45:28;;;;;;;2.17;0.60;;;;;;;;;;5012498;28;20032;-79
2022/09/09 11:47:55;;;;;;;3.30;0.88;;;;;;;;;;5017853;28;20072;-81
2022/09/09 11:50:21;;;;;;;3.20;0.73;;;;;;;;;;5019531;28;20646;-81
2022/09/09 11:52:49;;;;;;;1.48;0.73;;;;;;;;;;5018709;28;20038;-80
2022/09/09 11:55:32;;;;;;;0.93;0.40;;;;;;;;;;5019465;28;20021;-81
2022/09/09 11:58:06;;;;;;;1.88;0.70;;;;;;;;;;5018225;28;20022;-80
2022/09/09 12:00:34;;;;;;;0.40;0.32;;;;;;;;;;5028140;28;20021;-80
2022/09/09 12:02:59;;;;;;;1.08;0.45;;;;;;;;;;5021422;28;20037;-81
2022/09/09 12:05:40;;;;;;;2.25;0.85;;;;;;;;;;5017184;28;20021;-80
2022/09/09 12:08:09;;;;;;;2.63;0.80;;;;;;;;;;5017057;28;20045;-80
2022/09/09 12:10:40;;;;;;;0.30;0.30;;;;;;;;;;5014060;28;20551;-79
2022/09/09 12:13:19;;;;;;;1.77;0.50;;;;;;;;;;5013907;28;20034;-80
2022/09/09 12:15:49;;;;;;;0.40;0.40;;;;;;;;;;5018191;28;20361;-80
2022/09/09 12:18:23;;;;;;;0.30;0.30;;;;;;;;;;5012760;28;20026;-80
2022/09/09 12:21:07;;;;;;;3.22;0.45;;;;;;;;;;5013604;28;20060;-80
2022/09/09 12:23:54;;;;;;;0.25;0.25;;;;;;;;;;5024697;28;20087;-80
2022/09/09 12:26:55;;;;;;;0.30;0.30;;;;;;;;;;5016888;28;20070;-80
2022/09/09 12:29:26;;;;;;;1.48;0.32;;;;;;;;;;5015597;28;20018;-80
2022/09/09 12:32:11;;;;;;;1.35;0.70;;;;;;;;;;5027575;28;20063;-80
2022/09/09 12:34:39;;;;;;;0.35;0.32;;;;;;;;;;5037387;28;20037;-80
2022/09/09 12:37:18;;;;;;;1.10;0.43;;;;;;;;;;5037083;28;20022;-80
2022/09/09 12:39:55;;;;;;;2.33;0.57;;;;;;;;;;5036691;28;20037;-80
2022/09/09 12:42:22;;;;;;;1.48;0.50;;;;;;;;;;5017684;28;20025;-80
2022/09/09 12:44:51;;;;;;;1.55;0.25;;;;;;;;;;5012412;28;20026;-80
2022/09/09 12:47:20;;;;;;;2.33;0.63;;;;;;;;;;5016978;28;20025;-79
2022/09/09 12:49:49;;;;;;;0.50;0.50;;;;;;;;;;5035146;28;20476;-80
2022/09/09 12:52:14;;;;;;;0.57;0.47;;;;;;;;;;5020274;28;20033;-80
2022/09/09 12:54:46;;;;;;;0.43;0.43;;;;;;;;;;5037341;28;20028;-80
2022/09/09 12:57:13;;;;;;;1.60;0.73;;;;;;;;;;5023971;28;20026;-80
2022/09/09 12:59:45;;;;;;;3.08;0.47;;;;;;;;;;4996812;28;20033;-79
2022/09/09 13:02:19;;;;;;;2.60;0.20;;;;;;;;;;5029507;28;20025;-79
2022/09/09 13:04:46;;;;;;;0.95;0.55;;;;;;;;;;5039220;28;20072;-79
2022/09/09 13:07:13;;;;;;;1.38;0.30;;;;;;;;;;5017995;28;20053;-80
2022/09/09 13:09:39;;;;;;;1.75;0.35;;;;;;;;;;5019329;28;20033;-79
2022/09/09 13:12:13;;;;;;;1.55;0.75;;;;;;;;;;5013812;28;20029;-79
2022/09/09 13:14:39;;;;;;;3.20;0.55;;;;;;;;;;5010713;28;20064;-79
2022/09/09 13:17:06;;;;;;;2.28;0.25;;;;;;;;;;5021457;28;20026;-79
2022/09/09 13:19:37;;;;;;;0.98;0.38;;;;;;;;;;5017741;28;20365;-79
2022/09/09 13:22:28;;;;;;;1.43;0.57;;;;;;;;;;5017873;28;20022;-80
2022/09/09 13:25:03;;;;;;;2.33;0.45;;;;;;;;;;5015508;28;20706;-78
2022/09/09 13:27:33;;;;;;;3.55;0.65;;;;;;;;;;5016021;28;20099;-79
2022/09/09 13:29:59;;;;;;;0.75;0.45;;;;;;;;;;5020331;28;20030;-79
2022/09/09 13:32:29;;;;;;;1.15;0.50;;;;;;;;;;5019657;28;20021;-80
2022/09/09 13:34:56;;;;;;;0.50;0.50;;;;;;;;;;5018438;28;20084;-79
2022/09/09 13:37:36;;;;;;;1.45;0.47;;;;;;;;;;5016871;28;20396;-80
2022/09/09 13:40:05;;;;;;;0.65;0.50;;;;;;;;;;5016660;28;20037;-80
2022/09/09 13:42:35;;;;;;;2.58;0.50;;;;;;;;;;5010888;28;20041;-78
2022/09/09 13:45:01;;;;;;;1.60;0.50;;;;;;;;;;5019511;28;20030;-79
2022/09/09 13:47:31;;;;;;;0.30;0.30;;;;;;;;;;5018542;28;20024;-80
2022/09/09 13:49:56;;;;;;;2.00;0.75;;;;;;;;;;5017287;28;20165;-80
2022/09/09 13:52:22;;;;;;;2.15;0.60;;;;;;;;;;5016772;28;20057;-79
2022/09/09 13:54:52;;;;;;;1.83;0.60;;;;;;;;;;5013219;28;20507;-79
2022/09/09 13:57:19;;;;;;;0.93;0.40;;;;;;;;;;5016087;28;20024;-80
2022/09/09 13:59:46;;;;;;;2.05;0.45;;;;;;;;;;5014322;28;20452;-81
2022/09/09 14:02:11;;;;;;;1.75;0.55;;;;;;;;;;5008506;28;20020;-79
2022/09/09 14:04:37;;;;;;;5.07;0.70;;;;;;;;;;5014661;28;20030;-79
2022/09/09 14:07:03;;;;;;;1.55;0.68;;;;;;;;;;5025775;28;20033;-79
2022/09/09 14:09:28;;;;;;;1.83;0.70;;;;;;;;;;5022871;28;20041;-78
2022/09/09 14:11:55;;;;;;;1.42;0.43;;;;;;;;;;5023381;28;20125;-80
2022/09/09 14:14:20;;;;;;;2.05;0.63;;;;;;;;;;4999760;28;20428;-79
2022/09/09 14:16:45;;;;;;;0.20;0.20;;;;;;;;;;5023574;28;20053;-79
2022/09/09 14:19:11;;;;;;;4.28;0.52;;;;;;;;;;5015332;28;20022;-80
2022/09/09 14:21:36;;;;;;;0.55;0.30;;;;;;;;;;5016131;28;20109;-78
2022/09/09 14:24:02;;;;;;;1.55;0.40;;;;;;;;;;5000102;28;20127;-79
2022/09/09 14:26:29;;;;;;;0.63;0.47;;;;;;;;;;4995357;28;20022;-79
2022/09/09 14:28:55;;;;;;;1.52;0.60;;;;;;;;;;5007525;28;20052;-79
2022/09/09 14:31:20;;;;;;;0.35;0.32;;;;;;;;;;5020439;28;20017;-79
2022/09/09 14:33:46;;;;;;;1.23;0.57;;;;;;;;;;5035033;28;20071;-79
2022/09/09 14:36:12;;;;;;;0.73;0.40;;;;;;;;;;5034907;28;20033;-79
2022/09/09 14:38:39;;;;;;;1.83;0.32;;;;;;;;;;5014990;28;20038;-78
2022/09/09 14:41:13;;;;;;;1.55;0.60;;;;;;;;;;5010460;28;20025;-81
2022/09/09 14:43:39;;;;;;;2.53;0.50;;;;;;;;;;5002119;28;20045;-80
2022/09/09 14:46:09;;;;;;;1.60;0.60;;;;;;;;;;5017560;28;20029;-80
2022/09/09 14:48:35;;;;;;;1.35;0.70;;;;;;;;;;5011618;28;20030;-80
2022/09/09 14:51:19;;;;;;;0.75;0.40;;;;;;;;;;5014394;28;20026;-80
2022/09/09 14:53:45;;;;;;;0.73;0.40;;;;;;;;;;5152687;22;20034;-80
2022/09/09 14:56:17;;;;;;;2.97;0.60;;;;;;;;;;5041838;28;20046;-81
2022/09/09 14:58:43;;;;;;;1.08;0.40;;;;;;;;;;5038762;28;20104;-82
2022/09/09 15:01:12;;;;;;;1.13;0.60;;;;;;;;;;5043575;28;20052;-82
2022/09/09 15:03:42;;;;;;;0.45;0.20;;;;;;;;;;5059005;28;20036;-78
2022/09/09 15:06:12;;;;;;;0.98;0.47;;;;;;;;;;5046953;28;20391;-84
2022/09/09 15:08:40;;;;;;;1.35;0.55;;;;;;;;;;5050863;28;20692;-79
2022/09/09 15:11:10;;;;;;;3.58;0.40;;;;;;;;;;5041098;28;20022;-83
2022/09/09 15:13:37;;;;;;;0.40;0.40;;;;;;;;;;5049943;28;20021;-82
2022/09/09 15:16:11;;;;;;;1.30;0.30;;;;;;;;;;5052244;28;20260;-82
2022/09/09 15:18:40;;;;;;;1.27;0.30;;;;;;;;;;5042118;28;20018;-81